createdAt,value
2016-04-17T22:53:41.953Z,101070
2016-04-17T22:53:55.953Z,101073
2016-04-17T22:54:09.016Z,101079
2016-04-17T22:54:21.516Z,101061
2016-04-17T22:54:34.000Z,101061
2016-04-17T22:54:46.971Z,101061
2016-04-17T22:54:59.455Z,101073
2016-04-17T22:55:12.127Z,101058
2016-04-17T22:55:24.518Z,101058
2016-04-17T22:55:37.065Z,101073
2016-04-17T22:55:49.755Z,101076
2016-04-17T22:56:02.490Z,101079
2016-04-17T22:56:15.130Z,101067
2016-04-17T22:56:28.068Z,101073
2016-04-17T22:56:40.646Z,101079
2016-04-17T22:56:53.070Z,101067
2016-04-17T22:57:05.788Z,101067
2016-04-17T22:57:18.367Z,101086
2016-04-17T22:57:30.804Z,101076
2016-04-17T22:57:43.432Z,101076
2016-04-17T22:57:55.901Z,101079
2016-04-17T22:58:08.557Z,101070
2016-04-17T22:58:21.088Z,101076
2016-04-17T22:58:33.510Z,101082
2016-04-17T22:58:46.200Z,101076
2016-04-17T22:58:58.856Z,101089
2016-04-17T22:59:11.247Z,101079
2016-04-17T22:59:23.872Z,101089
2016-04-17T22:59:36.481Z,101086
2016-04-17T22:59:48.891Z,101082
2016-04-17T23:00:01.454Z,101092
2016-04-17T23:00:14.157Z,101085
2016-04-17T23:00:26.610Z,101076
2016-04-17T23:00:39.172Z,101095
2016-04-17T23:00:51.612Z,101095
2016-04-17T23:01:04.268Z,101103
2016-04-17T23:01:16.893Z,101095
2016-04-17T23:01:29.331Z,101100
2016-04-17T23:01:41.909Z,101092
2016-04-17T23:01:54.584Z,101089
2016-04-17T23:02:07.021Z,101092
2016-04-17T23:02:19.521Z,101100
2016-04-17T23:02:32.193Z,101106
2016-04-17T23:02:44.649Z,101109
2016-04-17T23:02:57.102Z,101106
2016-04-17T23:03:09.680Z,101109
2016-04-17T23:03:22.259Z,101106
2016-04-17T23:03:34.962Z,101100
2016-04-17T23:03:47.386Z,101115
2016-04-17T23:03:59.948Z,101106
2016-04-17T23:04:12.620Z,101106
2016-04-17T23:04:25.057Z,101118
2016-04-17T23:04:37.511Z,101112
2016-04-17T23:04:50.185Z,101115
2016-04-17T23:05:02.701Z,101122
2016-04-17T23:05:15.092Z,101137
2016-04-17T23:05:27.764Z,101125
2016-04-17T23:05:40.326Z,101112
2016-04-17T23:05:52.892Z,101118
2016-04-17T23:06:05.376Z,101131
2016-04-17T23:06:17.845Z,101121
2016-04-17T23:06:30.610Z,101125
2016-04-17T23:06:43.409Z,101137
2016-04-17T23:06:55.800Z,101137
2016-04-17T23:07:08.487Z,101131
2016-04-17T23:07:21.050Z,101143
2016-04-17T23:07:33.440Z,101131
2016-04-17T23:07:46.178Z,101134
2016-04-17T23:07:58.756Z,101131
2016-04-17T23:08:11.147Z,101143
2016-04-17T23:08:23.740Z,101146
2016-04-17T23:08:37.131Z,101137
2016-04-17T23:08:50.446Z,101137
2016-04-17T23:09:03.634Z,101143
2016-04-17T23:09:16.306Z,101146
2016-04-17T23:09:28.759Z,101152
2016-04-17T23:09:41.196Z,101149
2016-04-17T23:09:53.870Z,101156
2016-04-17T23:10:06.417Z,101156
2016-04-17T23:10:18.823Z,101159
2016-04-17T23:10:31.527Z,101152
2016-04-17T23:24:42.205Z,101143
2016-04-17T23:24:54.879Z,101146
2016-04-17T23:25:07.442Z,101127
2016-04-17T23:25:19.832Z,101136
2016-04-17T23:25:32.442Z,101136
2016-04-17T23:25:45.039Z,101127
2016-04-17T23:25:57.446Z,101124
2016-04-17T23:26:10.024Z,101127
2016-04-17T23:26:22.696Z,101133
2016-04-17T23:26:35.071Z,101130
2016-04-17T23:26:47.573Z,101133
2016-04-17T23:27:00.229Z,101127
2016-04-17T23:27:12.666Z,101130
2016-04-17T23:27:25.323Z,101124
2016-04-17T23:27:37.713Z,101124
2016-04-17T23:27:50.263Z,101121
2016-04-17T23:28:02.951Z,101130
2016-04-17T23:28:15.326Z,101127
2016-04-17T23:28:27.810Z,101127
2016-04-17T23:28:40.513Z,101127
2016-04-17T23:28:53.000Z,101121
2016-04-17T23:29:05.454Z,101136
2016-04-17T23:29:18.125Z,101121
2016-04-17T23:29:31.922Z,101124
2016-04-17T23:29:44.315Z,101130
2016-04-17T23:29:56.956Z,101112
2016-04-17T23:30:09.456Z,101130
2016-04-17T23:30:22.159Z,101127
2016-04-17T23:30:34.627Z,101130
2016-04-17T23:30:47.146Z,101124
2016-04-17T23:30:59.834Z,101118
2016-04-17T23:31:12.334Z,101130
2016-04-17T23:31:24.771Z,101130
2016-04-17T23:31:37.412Z,101115
2016-04-17T23:31:49.992Z,101127
2016-04-17T23:32:02.414Z,101130
2016-04-17T23:32:15.054Z,101133
2016-04-17T23:32:27.648Z,101127
2016-04-17T23:32:40.179Z,101127
2016-04-17T23:32:52.698Z,101124
2016-04-17T23:33:05.089Z,101127
2016-04-17T23:33:17.776Z,101127
2016-04-17T23:33:30.323Z,101130
2016-04-17T23:33:42.748Z,101133
2016-04-17T23:33:55.373Z,101133
2016-04-17T23:34:08.013Z,101136
2016-04-17T23:34:20.404Z,101133
2016-04-17T23:34:32.967Z,101139
2016-04-17T23:34:45.641Z,101133
2016-04-17T23:34:58.032Z,101133
2016-04-17T23:35:10.563Z,101136
2016-04-17T23:35:23.079Z,101139
2016-04-17T23:35:35.673Z,101136
2016-04-17T23:35:48.315Z,101149
2016-04-17T23:36:00.706Z,101146
2016-04-17T23:36:13.284Z,101149
2016-04-17T23:36:25.940Z,101139
2016-04-17T23:36:39.222Z,101149
2016-04-17T23:36:51.708Z,101142
2016-04-17T23:37:04.395Z,101136
2016-04-17T23:37:16.864Z,101136
2016-04-17T23:37:29.317Z,101142
2016-04-17T23:37:42.020Z,101139
2016-04-17T23:37:54.523Z,101149
2016-04-17T23:38:07.133Z,101142
2016-04-17T23:38:19.555Z,101136
2016-04-17T23:38:32.039Z,101136
2016-04-17T23:38:44.870Z,101142
2016-04-17T23:38:58.323Z,101142
2016-04-17T23:39:11.308Z,101142
2016-04-17T23:39:23.964Z,101142
2016-04-17T23:39:36.464Z,101139
2016-04-17T23:39:48.904Z,101136
2016-04-17T23:40:01.576Z,101133
2016-04-17T23:40:14.154Z,101133
2016-04-17T23:40:26.576Z,101133
2016-04-17T23:40:39.186Z,101133
2016-04-17T23:40:51.625Z,101130
2016-04-17T23:41:04.313Z,101136
2016-04-17T23:41:16.813Z,101136
2016-04-17T23:41:29.203Z,101127
2016-04-17T23:55:37.257Z,101145
2016-04-17T23:55:49.901Z,101133
2016-04-17T23:56:02.307Z,101130
2016-04-17T23:56:14.838Z,101130
2016-04-17T23:56:27.510Z,101133
2016-04-17T23:56:39.994Z,101142
2016-04-17T23:56:52.434Z,101136
2016-04-17T23:57:05.106Z,101124
2016-04-17T23:57:17.590Z,101139
2016-04-17T23:57:29.996Z,101130
2016-04-17T23:57:42.668Z,101127
2016-04-17T23:57:55.219Z,101130
2016-04-17T23:58:07.625Z,101130
2016-04-17T23:58:20.235Z,101127
2016-04-17T23:58:32.844Z,101130
2016-04-17T23:58:45.252Z,101136
2016-04-17T23:58:57.815Z,101133
2016-04-17T23:59:10.487Z,101123
2016-04-17T23:59:22.940Z,101130
2016-04-17T23:59:35.487Z,101130
2016-04-17T23:59:47.912Z,101136
